sensor_id;sensor_type;location;lat;lon;timestamp;pressure;altitude;pressure_sealevel;temperature;humidity
64616;BME280;51027;42.162;24.754;2023-08-21T03:30:41;99761.97;;;23.28;64.24
64616;BME280;51027;42.162;24.754;2023-08-21T03:33:07;99763.41;;;23.22;64.28
64616;BME280;51027;42.162;24.754;2023-08-21T03:35:33;99768.19;;;23.19;64.20
64616;BME280;51027;42.162;24.754;2023-08-21T03:37:59;99761.72;;;23.21;64.14
64616;BME280;51027;42.162;24.754;2023-08-21T03:40:24;99763.94;;;23.16;64.42
64616;BME280;51027;42.162;24.754;2023-08-21T03:42:49;99760.38;;;23.06;64.63
64616;BME280;51027;42.162;24.754;2023-08-21T03:45:15;99766.34;;;23.10;64.81
64616;BME280;51027;42.162;24.754;2023-08-21T03:47:41;99765.88;;;22.95;64.75
64616;BME280;51027;42.162;24.754;2023-08-21T03:50:06;99757.69;;;22.96;64.92
64616;BME280;51027;42.162;24.754;2023-08-21T03:52:32;99761.06;;;22.98;65.01
64616;BME280;51027;42.162;24.754;2023-08-21T03:54:57;99768.63;;;23.14;64.64
64616;BME280;51027;42.162;24.754;2023-08-21T03:57:23;99771.75;;;23.29;64.26
64616;BME280;51027;42.162;24.754;2023-08-21T03:59:48;99766.97;;;23.33;64.22
64616;BME280;51027;42.162;24.754;2023-08-21T04:02:13;99758.75;;;23.34;64.02
64616;BME280;51027;42.162;24.754;2023-08-21T04:04:39;99758.31;;;23.39;63.73
64616;BME280;51027;42.162;24.754;2023-08-21T04:07:04;99769.22;;;23.47;63.87
64616;BME280;51027;42.162;24.754;2023-08-21T04:09:30;99773.91;;;23.54;63.44
64616;BME280;51027;42.162;24.754;2023-08-21T04:11:55;99772.75;;;23.57;63.35
64616;BME280;51027;42.162;24.754;2023-08-21T04:14:20;99768.38;;;23.56;63.23
64616;BME280;51027;42.162;24.754;2023-08-21T04:16:49;99775.78;;;23.64;63.05
64616;BME280;51027;42.162;24.754;2023-08-21T04:19:14;99766.56;;;23.66;62.65
64616;BME280;51027;42.162;24.754;2023-08-21T04:21:39;99774.66;;;23.76;62.67
64616;BME280;51027;42.162;24.754;2023-08-21T04:24:05;99772.50;;;23.60;62.87
64616;BME280;51027;42.162;24.754;2023-08-21T04:26:30;99774.34;;;23.69;62.67
64616;BME280;51027;42.162;24.754;2023-08-21T04:28:56;99743.66;;;23.72;62.19
64616;BME280;51027;42.162;24.754;2023-08-21T04:31:21;99783.25;;;23.89;62.41
64616;BME280;51027;42.162;24.754;2023-08-21T04:33:47;99779.00;;;24.06;61.88
64616;BME280;51027;42.162;24.754;2023-08-21T04:36:16;99779.00;;;23.96;61.89
64616;BME280;51027;42.162;24.754;2023-08-21T04:38:42;99781.53;;;24.17;61.97
64616;BME280;51027;42.162;24.754;2023-08-21T04:41:08;99787.03;;;24.25;61.31
64616;BME280;51027;42.162;24.754;2023-08-21T04:43:34;99778.53;;;24.30;61.70
64616;BME280;51027;42.162;24.754;2023-08-21T04:45:59;99784.78;;;24.21;61.38
64616;BME280;51027;42.162;24.754;2023-08-21T04:48:25;99780.69;;;24.07;61.88
64616;BME280;51027;42.162;24.754;2023-08-21T04:50:50;99794.88;;;23.99;62.75
64616;BME280;51027;42.162;24.754;2023-08-21T04:53:16;99777.88;;;23.79;62.69
64616;BME280;51027;42.162;24.754;2023-08-21T04:55:41;99805.50;;;23.91;62.94
64616;BME280;51027;42.162;24.754;2023-08-21T04:58:08;99792.06;;;23.91;62.84
64616;BME280;51027;42.162;24.754;2023-08-21T05:00:34;99789.78;;;23.96;62.83
64616;BME280;51027;42.162;24.754;2023-08-21T05:03:00;99787.63;;;24.09;63.07
64616;BME280;51027;42.162;24.754;2023-08-21T05:05:25;99794.97;;;24.27;62.61
64616;BME280;51027;42.162;24.754;2023-08-21T05:07:52;99786.91;;;24.27;62.01
64616;BME280;51027;42.162;24.754;2023-08-21T05:10:17;99788.41;;;24.49;61.25
64616;BME280;51027;42.162;24.754;2023-08-21T05:12:43;99798.03;;;24.51;61.72
64616;BME280;51027;42.162;24.754;2023-08-21T05:15:09;99783.66;;;24.33;61.88
64616;BME280;51027;42.162;24.754;2023-08-21T05:17:34;99782.19;;;24.48;61.74
64616;BME280;51027;42.162;24.754;2023-08-21T05:19:59;99782.34;;;24.47;61.71
64616;BME280;51027;42.162;24.754;2023-08-21T05:22:25;99789.41;;;24.48;61.89
64616;BME280;51027;42.162;24.754;2023-08-21T05:24:50;99799.59;;;24.91;60.96
64616;BME280;51027;42.162;24.754;2023-08-21T05:27:16;99792.59;;;24.70;61.20
64616;BME280;51027;42.162;24.754;2023-08-21T05:29:41;99800.63;;;24.80;60.82
64616;BME280;51027;42.162;24.754;2023-08-21T05:32:07;99800.44;;;24.91;60.99
64616;BME280;51027;42.162;24.754;2023-08-21T05:34:32;99794.03;;;24.92;60.32
64616;BME280;51027;42.162;24.754;2023-08-21T05:36:58;99768.34;;;25.08;59.82
64616;BME280;51027;42.162;24.754;2023-08-21T05:39:23;99794.03;;;25.30;59.10
64616;BME280;51027;42.162;24.754;2023-08-21T05:41:48;99792.94;;;25.40;58.74
64616;BME280;51027;42.162;24.754;2023-08-21T05:44:14;99796.19;;;25.62;58.79
64616;BME280;51027;42.162;24.754;2023-08-21T05:46:39;99805.72;;;25.83;58.02
64616;BME280;51027;42.162;24.754;2023-08-21T05:49:05;99793.38;;;25.81;57.76
64616;BME280;51027;42.162;24.754;2023-08-21T05:51:30;99803.75;;;26.11;56.97
64616;BME280;51027;42.162;24.754;2023-08-21T05:53:56;99805.03;;;26.25;55.97
64616;BME280;51027;42.162;24.754;2023-08-21T05:56:22;99792.16;;;26.37;56.53
64616;BME280;51027;42.162;24.754;2023-08-21T05:58:47;99809.53;;;26.60;56.41
64616;BME280;51027;42.162;24.754;2023-08-21T06:01:13;99800.81;;;26.75;56.09
64616;BME280;51027;42.162;24.754;2023-08-21T06:03:38;99807.31;;;26.90;54.69
64616;BME280;51027;42.162;24.754;2023-08-21T06:06:04;99817.47;;;26.96;54.11
64616;BME280;51027;42.162;24.754;2023-08-21T06:08:30;99811.00;;;27.15;53.71
64616;BME280;51027;42.162;24.754;2023-08-21T06:10:55;99804.47;;;27.34;54.12
64616;BME280;51027;42.162;24.754;2023-08-21T06:13:21;99817.50;;;27.46;52.75
64616;BME280;51027;42.162;24.754;2023-08-21T06:15:47;99815.34;;;27.50;52.41
64616;BME280;51027;42.162;24.754;2023-08-21T06:18:13;99826.88;;;27.68;51.96
64616;BME280;51027;42.162;24.754;2023-08-21T06:20:39;99826.91;;;27.84;52.10
64616;BME280;51027;42.162;24.754;2023-08-21T06:23:04;99825.41;;;27.90;50.60
64616;BME280;51027;42.162;24.754;2023-08-21T06:25:29;99824.53;;;27.98;50.72
64616;BME280;51027;42.162;24.754;2023-08-21T06:27:56;99828.28;;;27.97;49.91
64616;BME280;51027;42.162;24.754;2023-08-21T06:30:21;99828.09;;;28.15;49.34
64616;BME280;51027;42.162;24.754;2023-08-21T06:32:47;99832.16;;;28.19;49.51
64616;BME280;51027;42.162;24.754;2023-08-21T06:35:12;99822.56;;;28.32;48.83
64616;BME280;51027;42.162;24.754;2023-08-21T06:37:39;99817.97;;;28.41;48.55
64616;BME280;51027;42.162;24.754;2023-08-21T06:40:05;99819.97;;;28.63;48.54
64616;BME280;51027;42.162;24.754;2023-08-21T06:42:30;99827.06;;;28.73;47.09
64616;BME280;51027;42.162;24.754;2023-08-21T06:44:55;99836.13;;;28.88;47.63
64616;BME280;51027;42.162;24.754;2023-08-21T06:47:21;99827.16;;;28.87;46.23
64616;BME280;51027;42.162;24.754;2023-08-21T06:49:46;99834.44;;;29.03;46.68
64616;BME280;51027;42.162;24.754;2023-08-21T06:52:12;99833.25;;;28.97;46.40
64616;BME280;51027;42.162;24.754;2023-08-21T06:54:37;99823.25;;;28.98;46.06
64616;BME280;51027;42.162;24.754;2023-08-21T06:57:03;99822.84;;;29.17;46.27
64616;BME280;51027;42.162;24.754;2023-08-21T06:59:28;99823.28;;;29.29;46.18
64616;BME280;51027;42.162;24.754;2023-08-21T07:01:54;99792.16;;;29.17;46.45
64616;BME280;51027;42.162;24.754;2023-08-21T07:04:19;99820.69;;;29.44;45.53
64616;BME280;51027;42.162;24.754;2023-08-21T07:06:45;99830.75;;;29.66;45.82
64616;BME280;51027;42.162;24.754;2023-08-21T07:09:10;99828.75;;;29.83;45.83
64616;BME280;51027;42.162;24.754;2023-08-21T07:11:35;99825.38;;;29.81;45.06
64616;BME280;51027;42.162;24.754;2023-08-21T07:14:01;99823.50;;;30.04;45.92
64616;BME280;51027;42.162;24.754;2023-08-21T07:16:26;99821.47;;;30.06;44.33
64616;BME280;51027;42.162;24.754;2023-08-21T07:18:52;99822.94;;;30.32;44.88
64616;BME280;51027;42.162;24.754;2023-08-21T07:21:17;99825.13;;;30.14;44.05
64616;BME280;51027;42.162;24.754;2023-08-21T07:23:43;99820.97;;;30.26;43.88
64616;BME280;51027;42.162;24.754;2023-08-21T07:26:08;99809.28;;;30.40;43.80
64616;BME280;51027;42.162;24.754;2023-08-21T07:28:34;99818.53;;;30.68;44.53
64616;BME280;51027;42.162;24.754;2023-08-21T07:30:59;99823.13;;;30.83;44.02
64616;BME280;51027;42.162;24.754;2023-08-21T07:33:26;99820.22;;;30.84;42.31
64616;BME280;51027;42.162;24.754;2023-08-21T07:36:04;99820.97;;;30.78;41.96
64616;BME280;51027;42.162;24.754;2023-08-21T07:38:30;99822.56;;;31.02;42.18
64616;BME280;51027;42.162;24.754;2023-08-21T07:41:22;99811.31;;;30.90;41.98
64616;BME280;51027;42.162;24.754;2023-08-21T07:43:47;99812.81;;;31.22;41.86
64616;BME280;51027;42.162;24.754;2023-08-21T07:46:13;99795.97;;;31.34;40.82
64616;BME280;51027;42.162;24.754;2023-08-21T07:48:49;99812.34;;;31.55;40.70
64616;BME280;51027;42.162;24.754;2023-08-21T07:51:15;99808.22;;;31.59;40.57
64616;BME280;51027;42.162;24.754;2023-08-21T07:53:41;99794.91;;;31.71;39.68
64616;BME280;51027;42.162;24.754;2023-08-21T07:56:06;99801.75;;;31.81;39.90
64616;BME280;51027;42.162;24.754;2023-08-21T07:58:32;99795.97;;;32.13;39.58
64616;BME280;51027;42.162;24.754;2023-08-21T08:00:58;99804.88;;;32.28;40.12
64616;BME280;51027;42.162;24.754;2023-08-21T08:03:24;99798.47;;;32.35;38.70
64616;BME280;51027;42.162;24.754;2023-08-21T08:05:49;99810.16;;;32.57;37.97
64616;BME280;51027;42.162;24.754;2023-08-21T08:08:17;99801.63;;;32.67;38.08
64616;BME280;51027;42.162;24.754;2023-08-21T08:10:42;99798.09;;;32.73;37.11
64616;BME280;51027;42.162;24.754;2023-08-21T08:13:08;99783.16;;;32.62;37.10
64616;BME280;51027;42.162;24.754;2023-08-21T08:15:34;99793.09;;;33.11;36.66
64616;BME280;51027;42.162;24.754;2023-08-21T08:18:01;99789.22;;;32.92;35.99
64616;BME280;51027;42.162;24.754;2023-08-21T08:20:27;99795.19;;;33.16;35.94
64616;BME280;51027;42.162;24.754;2023-08-21T08:22:52;99781.50;;;33.09;36.08
64616;BME280;51027;42.162;24.754;2023-08-21T08:25:17;99782.41;;;33.23;35.67
64616;BME280;51027;42.162;24.754;2023-08-21T08:27:43;99782.19;;;33.18;35.84
64616;BME280;51027;42.162;24.754;2023-08-21T08:30:09;99769.59;;;33.30;35.93
64616;BME280;51027;42.162;24.754;2023-08-21T08:32:35;99781.25;;;33.45;34.96
64616;BME280;51027;42.162;24.754;2023-08-21T08:35:01;99765.31;;;33.56;34.87
64616;BME280;51027;42.162;24.754;2023-08-21T08:37:26;99772.47;;;33.70;35.03
64616;BME280;51027;42.162;24.754;2023-08-21T08:39:52;99774.22;;;33.97;34.89
64616;BME280;51027;42.162;24.754;2023-08-21T08:42:17;99774.41;;;33.83;34.39
64616;BME280;51027;42.162;24.754;2023-08-21T08:44:43;99762.56;;;33.42;34.42
64616;BME280;51027;42.162;24.754;2023-08-21T08:47:10;99763.69;;;33.88;34.06
64616;BME280;51027;42.162;24.754;2023-08-21T08:49:37;99770.19;;;33.73;34.34
64616;BME280;51027;42.162;24.754;2023-08-21T08:52:03;99766.84;;;33.91;33.68
64616;BME280;51027;42.162;24.754;2023-08-21T08:54:29;99754.84;;;34.12;34.19
64616;BME280;51027;42.162;24.754;2023-08-21T08:56:55;99760.72;;;34.29;33.48
64616;BME280;51027;42.162;24.754;2023-08-21T08:59:21;99757.16;;;34.35;33.04
64616;BME280;51027;42.162;24.754;2023-08-21T09:01:47;99746.66;;;34.39;33.46
64616;BME280;51027;42.162;24.754;2023-08-21T09:04:12;99751.25;;;34.64;33.15
64616;BME280;51027;42.162;24.754;2023-08-21T09:06:37;99748.06;;;34.74;33.08
64616;BME280;51027;42.162;24.754;2023-08-21T09:09:08;99750.38;;;34.71;33.36
64616;BME280;51027;42.162;24.754;2023-08-21T09:11:42;99739.19;;;34.79;32.98
64616;BME280;51027;42.162;24.754;2023-08-21T09:14:09;99745.63;;;35.04;33.13
64616;BME280;51027;42.162;24.754;2023-08-21T09:16:35;99741.56;;;35.13;33.06
64616;BME280;51027;42.162;24.754;2023-08-21T09:19:00;99731.63;;;35.26;33.01
64616;BME280;51027;42.162;24.754;2023-08-21T09:21:27;99735.16;;;35.33;32.45
64616;BME280;51027;42.162;24.754;2023-08-21T09:23:59;99733.97;;;35.60;32.16
64616;BME280;51027;42.162;24.754;2023-08-21T09:26:25;99735.59;;;35.68;31.61
64616;BME280;51027;42.162;24.754;2023-08-21T09:28:52;99718.94;;;35.69;31.50
64616;BME280;51027;42.162;24.754;2023-08-21T09:31:44;99716.56;;;35.73;31.85
64616;BME280;51027;42.162;24.754;2023-08-21T09:34:12;99716.22;;;35.94;31.30
64616;BME280;51027;42.162;24.754;2023-08-21T09:36:38;99704.25;;;35.82;31.10
64616;BME280;51027;42.162;24.754;2023-08-21T09:39:04;99712.25;;;35.90;30.87
64616;BME280;51027;42.162;24.754;2023-08-21T09:41:31;99705.06;;;36.14;30.95
64616;BME280;51027;42.162;24.754;2023-08-21T09:44:04;99703.16;;;36.40;30.73
64616;BME280;51027;42.162;24.754;2023-08-21T09:46:31;99702.25;;;36.21;30.10
64616;BME280;51027;42.162;24.754;2023-08-21T09:48:56;99698.09;;;36.37;30.67
64616;BME280;51027;42.162;24.754;2023-08-21T09:51:21;99691.78;;;36.54;29.90
64616;BME280;51027;42.162;24.754;2023-08-21T09:53:50;99691.56;;;36.13;29.68
64616;BME280;51027;42.162;24.754;2023-08-21T09:56:18;99694.31;;;36.38;30.24
64616;BME280;51027;42.162;24.754;2023-08-21T09:58:43;99695.19;;;35.88;30.28
64616;BME280;51027;42.162;24.754;2023-08-21T10:01:11;99695.97;;;35.39;31.02
64616;BME280;51027;42.162;24.754;2023-08-21T10:03:41;99685.84;;;35.33;30.33
64616;BME280;51027;42.162;24.754;2023-08-21T10:06:10;99682.47;;;35.37;30.14
64616;BME280;51027;42.162;24.754;2023-08-21T10:08:40;99686.38;;;35.79;30.21
64616;BME280;51027;42.162;24.754;2023-08-21T10:11:09;99676.09;;;36.00;29.68
64616;BME280;51027;42.162;24.754;2023-08-21T10:13:36;99670.81;;;36.42;28.99
64616;BME280;51027;42.162;24.754;2023-08-21T10:16:02;99662.34;;;36.43;29.19
64616;BME280;51027;42.162;24.754;2023-08-21T10:18:35;99664.41;;;36.84;28.74
64616;BME280;51027;42.162;24.754;2023-08-21T10:23:40;99674.22;;;36.19;28.79
64616;BME280;51027;42.162;24.754;2023-08-21T10:26:07;99671.88;;;35.47;28.75
64616;BME280;51027;42.162;24.754;2023-08-21T10:31:37;99670.47;;;35.00;29.14
64616;BME280;51027;42.162;24.754;2023-08-21T10:34:09;99668.00;;;34.85;29.62
64616;BME280;51027;42.162;24.754;2023-08-21T10:41:40;99651.69;;;34.65;30.72
64616;BME280;51027;42.162;24.754;2023-08-21T10:44:06;99654.94;;;34.87;29.89
64616;BME280;51027;42.162;24.754;2023-08-21T10:46:51;99649.66;;;35.56;28.79
64616;BME280;51027;42.162;24.754;2023-08-21T10:49:17;99648.16;;;35.85;28.93
64616;BME280;51027;42.162;24.754;2023-08-21T10:51:43;99641.09;;;35.95;28.92
64616;BME280;51027;42.162;24.754;2023-08-21T10:54:15;99635.44;;;35.47;29.03
64616;BME280;51027;42.162;24.754;2023-08-21T10:56:47;99642.09;;;35.26;29.17
64616;BME280;51027;42.162;24.754;2023-08-21T10:59:16;99630.41;;;35.37;29.73
64616;BME280;51027;42.162;24.754;2023-08-21T11:01:45;99650.22;;;35.39;30.06
64616;BME280;51027;42.162;24.754;2023-08-21T11:04:15;99654.41;;;35.10;29.44
64616;BME280;51027;42.162;24.754;2023-08-21T11:06:41;99655.09;;;35.62;29.57
64616;BME280;51027;42.162;24.754;2023-08-21T11:09:12;99643.50;;;36.10;28.23
64616;BME280;51027;42.162;24.754;2023-08-21T11:11:38;99634.06;;;36.24;28.61
64616;BME280;51027;42.162;24.754;2023-08-21T11:14:03;99596.72;;;36.23;27.39
64616;BME280;51027;42.162;24.754;2023-08-21T11:16:29;99639.78;;;36.59;27.46
64616;BME280;51027;42.162;24.754;2023-08-21T11:18:54;99637.63;;;36.80;27.38
64616;BME280;51027;42.162;24.754;2023-08-21T11:21:23;99626.28;;;36.58;27.50
64616;BME280;51027;42.162;24.754;2023-08-21T11:23:48;99622.56;;;35.97;28.09
64616;BME280;51027;42.162;24.754;2023-08-21T11:26:13;99646.22;;;35.67;28.27
64616;BME280;51027;42.162;24.754;2023-08-21T11:28:39;99628.88;;;35.73;28.26
64616;BME280;51027;42.162;24.754;2023-08-21T11:31:05;99634.88;;;36.25;28.37
64616;BME280;51027;42.162;24.754;2023-08-21T11:33:31;99628.47;;;36.68;28.06
64616;BME280;51027;42.162;24.754;2023-08-21T11:35:57;99628.47;;;36.68;27.72
64616;BME280;51027;42.162;24.754;2023-08-21T11:38:26;99642.63;;;36.34;27.78
64616;BME280;51027;42.162;24.754;2023-08-21T11:43:17;99618.81;;;36.10;28.57
64616;BME280;51027;42.162;24.754;2023-08-21T11:45:45;99631.56;;;35.79;27.88
64616;BME280;51027;42.162;24.754;2023-08-21T11:48:11;99634.09;;;35.56;28.50
64616;BME280;51027;42.162;24.754;2023-08-21T11:50:36;99612.50;;;35.41;28.76
64616;BME280;51027;42.162;24.754;2023-08-21T11:53:02;99631.53;;;35.55;28.85
64616;BME280;51027;42.162;24.754;2023-08-21T11:55:29;99622.78;;;35.46;28.55
64616;BME280;51027;42.162;24.754;2023-08-21T11:57:54;99623.38;;;35.98;27.96
64616;BME280;51027;42.162;24.754;2023-08-21T12:00:27;99627.97;;;35.79;28.58
64616;BME280;51027;42.162;24.754;2023-08-21T12:02:58;99611.13;;;35.26;27.84
64616;BME280;51027;42.162;24.754;2023-08-21T12:05:24;99622.09;;;35.26;28.70
64616;BME280;51027;42.162;24.754;2023-08-21T12:07:50;99623.19;;;35.18;29.17
64616;BME280;51027;42.162;24.754;2023-08-21T12:10:25;99605.13;;;35.10;29.66
64616;BME280;51027;42.162;24.754;2023-08-21T12:12:52;99615.63;;;35.13;29.83
64616;BME280;51027;42.162;24.754;2023-08-21T12:15:17;99618.34;;;35.13;29.45
64616;BME280;51027;42.162;24.754;2023-08-21T12:17:43;99609.59;;;35.05;29.33
64616;BME280;51027;42.162;24.754;2023-08-21T12:20:08;99619.59;;;35.17;29.96
64616;BME280;51027;42.162;24.754;2023-08-21T12:22:37;99615.91;;;35.05;29.02
64616;BME280;51027;42.162;24.754;2023-08-21T12:25:02;99605.00;;;34.99;29.09
64616;BME280;51027;42.162;24.754;2023-08-21T12:27:29;99612.38;;;34.98;29.09
64616;BME280;51027;42.162;24.754;2023-08-21T12:29:54;99604.31;;;35.03;29.75
64616;BME280;51027;42.162;24.754;2023-08-21T12:32:20;99599.50;;;34.99;29.19
64616;BME280;51027;42.162;24.754;2023-08-21T12:34:45;99602.56;;;35.15;29.50
64616;BME280;51027;42.162;24.754;2023-08-21T12:37:11;99596.75;;;35.05;29.46
64616;BME280;51027;42.162;24.754;2023-08-21T12:39:37;99592.34;;;35.54;29.22
64616;BME280;51027;42.162;24.754;2023-08-21T12:42:02;99592.81;;;35.94;28.98
64616;BME280;51027;42.162;24.754;2023-08-21T12:44:28;99576.44;;;36.06;28.36
64616;BME280;51027;42.162;24.754;2023-08-21T12:46:54;99591.31;;;36.35;27.19
64616;BME280;51027;42.162;24.754;2023-08-21T12:49:19;99582.78;;;36.43;27.82
64616;BME280;51027;42.162;24.754;2023-08-21T12:51:45;99581.81;;;36.68;26.82
64616;BME280;51027;42.162;24.754;2023-08-21T12:54:10;99574.81;;;36.72;27.52
64616;BME280;51027;42.162;24.754;2023-08-21T12:56:36;99568.09;;;36.68;27.15
64616;BME280;51027;42.162;24.754;2023-08-21T12:59:01;99577.13;;;36.86;26.83
64616;BME280;51027;42.162;24.754;2023-08-21T13:01:28;99567.41;;;36.72;26.95
64616;BME280;51027;42.162;24.754;2023-08-21T13:03:55;99573.03;;;36.29;27.36
64616;BME280;51027;42.162;24.754;2023-08-21T13:06:20;99574.03;;;35.98;27.07
64616;BME280;51027;42.162;24.754;2023-08-21T13:08:45;99565.22;;;35.71;27.36
64616;BME280;51027;42.162;24.754;2023-08-21T13:11:11;99573.53;;;35.83;26.93
64616;BME280;51027;42.162;24.754;2023-08-21T13:13:36;99575.91;;;36.34;26.65
64616;BME280;51027;42.162;24.754;2023-08-21T13:16:02;99575.31;;;36.50;26.30
64616;BME280;51027;42.162;24.754;2023-08-21T13:18:28;99565.78;;;36.53;26.28
64616;BME280;51027;42.162;24.754;2023-08-21T13:20:54;99569.28;;;36.90;25.95
64616;BME280;51027;42.162;24.754;2023-08-21T13:23:19;99553.69;;;36.72;26.79
64616;BME280;51027;42.162;24.754;2023-08-21T13:25:45;99557.91;;;36.86;26.11
64616;BME280;51027;42.162;24.754;2023-08-21T13:28:10;99566.81;;;37.00;26.19
64616;BME280;51027;42.162;24.754;2023-08-21T13:30:37;99567.16;;;37.04;26.64
64616;BME280;51027;42.162;24.754;2023-08-21T13:33:03;99560.75;;;37.10;26.35
64616;BME280;51027;42.162;24.754;2023-08-21T13:35:30;99565.84;;;37.06;26.88
64616;BME280;51027;42.162;24.754;2023-08-21T13:37:57;99529.31;;;36.64;26.91
64616;BME280;51027;42.162;24.754;2023-08-21T13:40:24;99569.59;;;36.82;26.29
64616;BME280;51027;42.162;24.754;2023-08-21T13:42:50;99554.59;;;36.96;26.12
64616;BME280;51027;42.162;24.754;2023-08-21T13:45:20;99548.50;;;36.94;26.91
64616;BME280;51027;42.162;24.754;2023-08-21T13:47:47;99554.03;;;37.06;26.46
64616;BME280;51027;42.162;24.754;2023-08-21T13:50:14;99549.00;;;36.91;27.36
64616;BME280;51027;42.162;24.754;2023-08-21T13:52:40;99559.25;;;36.96;27.05
64616;BME280;51027;42.162;24.754;2023-08-21T13:55:07;99551.41;;;36.99;26.87
64616;BME280;51027;42.162;24.754;2023-08-21T13:57:37;99555.44;;;36.97;26.98
64616;BME280;51027;42.162;24.754;2023-08-21T14:00:04;99558.75;;;36.87;27.12
64616;BME280;51027;42.162;24.754;2023-08-21T14:02:35;99557.34;;;36.96;26.76
64616;BME280;51027;42.162;24.754;2023-08-21T14:05:01;99556.53;;;37.07;27.36
64616;BME280;51027;42.162;24.754;2023-08-21T14:07:26;99555.59;;;36.42;26.79
64616;BME280;51027;42.162;24.754;2023-08-21T14:09:52;99550.03;;;36.12;27.77
64616;BME280;51027;42.162;24.754;2023-08-21T14:12:17;99541.69;;;35.82;27.52
64616;BME280;51027;42.162;24.754;2023-08-21T14:14:42;99555.28;;;35.95;27.68
64616;BME280;51027;42.162;24.754;2023-08-21T14:17:08;99538.53;;;36.21;26.91
64616;BME280;51027;42.162;24.754;2023-08-21T14:19:33;99553.38;;;35.95;27.20
64616;BME280;51027;42.162;24.754;2023-08-21T14:21:59;99541.53;;;35.58;27.87
64616;BME280;51027;42.162;24.754;2023-08-21T14:24:25;99538.63;;;35.53;27.56
64616;BME280;51027;42.162;24.754;2023-08-21T14:26:50;99538.09;;;35.88;27.33
64616;BME280;51027;42.162;24.754;2023-08-21T14:29:16;99535.69;;;36.28;27.58
64616;BME280;51027;42.162;24.754;2023-08-21T14:31:41;99540.31;;;36.46;27.36
64616;BME280;51027;42.162;24.754;2023-08-21T14:34:06;99541.88;;;36.42;27.45
64616;BME280;51027;42.162;24.754;2023-08-21T14:36:32;99534.63;;;36.29;28.27
64616;BME280;51027;42.162;24.754;2023-08-21T14:38:58;99533.94;;;36.15;27.57
64616;BME280;51027;42.162;24.754;2023-08-21T14:41:24;99515.94;;;35.89;27.53
64616;BME280;51027;42.162;24.754;2023-08-21T14:43:49;99535.38;;;35.63;27.53
64616;BME280;51027;42.162;24.754;2023-08-21T14:46:15;99530.25;;;35.48;27.38
64616;BME280;51027;42.162;24.754;2023-08-21T14:48:40;99531.41;;;35.34;27.07
64616;BME280;51027;42.162;24.754;2023-08-21T14:51:05;99525.06;;;35.40;28.07
64616;BME280;51027;42.162;24.754;2023-08-21T14:53:31;99535.22;;;35.76;27.19
64616;BME280;51027;42.162;24.754;2023-08-21T14:55:56;99522.72;;;35.87;27.86
64616;BME280;51027;42.162;24.754;2023-08-21T14:58:22;99522.94;;;35.42;28.48
64616;BME280;51027;42.162;24.754;2023-08-21T15:00:48;99537.22;;;35.69;28.09
64616;BME280;51027;42.162;24.754;2023-08-21T15:03:14;99521.13;;;35.72;26.56
64616;BME280;51027;42.162;24.754;2023-08-21T15:05:39;99530.00;;;35.93;27.08
64616;BME280;51027;42.162;24.754;2023-08-21T15:08:05;99533.69;;;35.87;26.90
64616;BME280;51027;42.162;24.754;2023-08-21T15:10:30;99530.38;;;35.78;26.28
64616;BME280;51027;42.162;24.754;2023-08-21T15:12:56;99527.28;;;35.49;26.37
64616;BME280;51027;42.162;24.754;2023-08-21T15:15:22;99528.06;;;35.32;26.83
64616;BME280;51027;42.162;24.754;2023-08-21T15:17:47;99532.09;;;35.29;27.05
64616;BME280;51027;42.162;24.754;2023-08-21T15:20:13;99521.63;;;35.19;26.94
64616;BME280;51027;42.162;24.754;2023-08-21T15:22:41;99529.28;;;35.11;27.71
64616;BME280;51027;42.162;24.754;2023-08-21T15:25:08;99523.44;;;35.07;27.57
64616;BME280;51027;42.162;24.754;2023-08-21T15:27:34;99525.47;;;35.12;27.60
64616;BME280;51027;42.162;24.754;2023-08-21T15:30:00;99523.44;;;35.07;28.02
64616;BME280;51027;42.162;24.754;2023-08-21T15:32:25;99520.13;;;34.99;28.80
64616;BME280;51027;42.162;24.754;2023-08-21T15:34:51;99517.56;;;35.29;27.03
64616;BME280;51027;42.162;24.754;2023-08-21T15:37:16;99512.69;;;35.31;27.74
64616;BME280;51027;42.162;24.754;2023-08-21T15:39:41;99506.31;;;35.37;27.58
64616;BME280;51027;42.162;24.754;2023-08-21T15:42:07;99508.66;;;35.33;27.66
64616;BME280;51027;42.162;24.754;2023-08-21T15:44:32;99512.44;;;35.39;28.11
64616;BME280;51027;42.162;24.754;2023-08-21T15:47:01;99522.25;;;35.21;28.52
64616;BME280;51027;42.162;24.754;2023-08-21T15:49:26;99529.25;;;35.17;28.17
64616;BME280;51027;42.162;24.754;2023-08-21T15:51:51;99528.09;;;35.25;28.22
64616;BME280;51027;42.162;24.754;2023-08-21T15:54:18;99530.78;;;35.32;28.49
64616;BME280;51027;42.162;24.754;2023-08-21T15:56:44;99524.31;;;35.26;29.09
64616;BME280;51027;42.162;24.754;2023-08-21T15:59:10;99526.28;;;35.19;28.72
64616;BME280;51027;42.162;24.754;2023-08-21T16:01:35;99524.31;;;35.01;28.47
64616;BME280;51027;42.162;24.754;2023-08-21T16:04:00;99536.06;;;35.08;28.10
64616;BME280;51027;42.162;24.754;2023-08-21T16:06:26;99535.38;;;35.13;27.95
64616;BME280;51027;42.162;24.754;2023-08-21T16:08:51;99524.53;;;35.00;28.25
64616;BME280;51027;42.162;24.754;2023-08-21T16:11:17;99539.84;;;35.07;28.52
64616;BME280;51027;42.162;24.754;2023-08-21T16:13:42;99533.19;;;34.97;28.20
64616;BME280;51027;42.162;24.754;2023-08-21T16:16:08;99546.88;;;34.97;28.94
64616;BME280;51027;42.162;24.754;2023-08-21T16:18:33;99550.78;;;34.44;31.67
64616;BME280;51027;42.162;24.754;2023-08-21T16:21:03;99555.47;;;34.17;32.77
64616;BME280;51027;42.162;24.754;2023-08-21T16:23:29;99549.63;;;34.07;33.55
64616;BME280;51027;42.162;24.754;2023-08-21T16:25:55;99553.28;;;33.74;35.19
64616;BME280;51027;42.162;24.754;2023-08-21T16:28:20;99556.66;;;33.50;35.68